createdAt,value
2018-08-28T00:02:20.685Z,26.41
2018-08-28T00:07:05.382Z,26.48
2018-08-28T00:11:48.829Z,26.51
2018-08-28T00:16:33.280Z,26.40
2018-08-28T00:21:16.619Z,26.41
2018-08-28T00:26:00.498Z,26.34
2018-08-28T00:30:44.131Z,26.40
2018-08-28T00:35:27.404Z,26.33
2018-08-28T00:40:10.831Z,26.18
2018-08-28T00:44:54.027Z,26.00
2018-08-28T00:49:37.433Z,26.12
2018-08-28T00:54:29.042Z,26.23
2018-08-28T00:59:12.650Z,26.09
2018-08-28T01:03:56.030Z,25.96
2018-08-28T01:08:39.644Z,26.09
2018-08-28T01:13:22.974Z,25.96
2018-08-28T01:18:07.190Z,25.97
2018-08-28T01:22:50.492Z,25.90
2018-08-28T01:27:33.979Z,25.99
2018-08-28T01:32:17.423Z,25.73
2018-08-28T01:37:01.840Z,25.78
2018-08-28T01:41:45.106Z,25.91
2018-08-28T01:46:29.625Z,25.68
2018-08-28T01:51:12.987Z,25.65
2018-08-28T01:55:57.522Z,25.65
2018-08-28T02:00:40.962Z,25.64
2018-08-28T02:05:24.675Z,25.65
2018-08-28T02:10:09.210Z,25.70
2018-08-28T02:14:52.590Z,25.69
2018-08-28T02:19:37.010Z,25.59
2018-08-28T02:24:20.784Z,25.50
2018-08-28T02:29:04.355Z,25.63
2018-08-28T02:33:47.656Z,25.64
2018-08-28T02:38:31.123Z,25.63
2018-08-28T02:43:14.457Z,25.66
2018-08-28T02:47:58.980Z,25.49
2018-08-28T02:52:42.355Z,25.53
2018-08-28T02:57:25.949Z,25.20
2018-08-28T03:02:09.404Z,25.43
2018-08-28T03:06:52.995Z,25.41
2018-08-28T03:11:36.485Z,25.35
2018-08-28T03:16:19.853Z,25.23
2018-08-28T03:21:03.453Z,25.17
2018-08-28T03:25:50.186Z,25.17
2018-08-28T03:30:33.642Z,25.05
2018-08-28T03:35:17.155Z,25.09
2018-08-28T03:40:00.512Z,25.07
2018-08-28T03:44:43.808Z,25.01
2018-08-28T03:49:27.162Z,24.91
2018-08-28T03:54:10.527Z,24.92
2018-08-28T03:58:57.313Z,24.78
2018-08-28T04:03:40.663Z,24.81
2018-08-28T04:08:24.112Z,24.96
2018-08-28T04:13:07.614Z,24.96
2018-08-28T04:17:52.144Z,24.94
2018-08-28T04:22:35.611Z,24.91
2018-08-28T04:27:18.892Z,25.00
2018-08-28T04:32:03.372Z,24.99
2018-08-28T04:36:47.261Z,24.79
2018-08-28T04:41:30.711Z,24.81
2018-08-28T04:46:15.272Z,24.73
2018-08-28T04:50:58.801Z,24.80
2018-08-28T04:55:42.474Z,24.77
2018-08-28T05:00:25.914Z,24.73
2018-08-28T05:05:10.148Z,24.58
2018-08-28T05:09:53.519Z,24.60
2018-08-28T05:14:37.012Z,24.75
2018-08-28T05:19:27.859Z,24.78
2018-08-28T05:24:11.311Z,24.70
2018-08-28T05:28:54.847Z,24.77
2018-08-28T05:33:40.716Z,24.65
2018-08-28T05:38:25.344Z,24.73
2018-08-28T05:43:08.877Z,24.63
2018-08-28T05:48:03.269Z,24.81
2018-08-28T05:52:46.822Z,24.74
2018-08-28T05:57:30.350Z,24.82
2018-08-28T06:02:14.905Z,24.84
2018-08-28T06:07:00.108Z,24.85
2018-08-28T06:11:44.431Z,24.81
2018-08-28T06:16:28.742Z,24.86
2018-08-28T06:21:16.401Z,24.79
2018-08-28T06:26:04.230Z,24.85
2018-08-28T06:30:47.597Z,24.92
2018-08-28T06:35:32.674Z,24.84
2018-08-28T06:40:16.670Z,24.97
2018-08-28T06:45:01.088Z,24.91
2018-08-28T06:49:44.554Z,24.80
2018-08-28T06:54:27.884Z,24.85
2018-08-28T06:59:12.190Z,24.76
2018-08-28T07:03:55.656Z,24.80
2018-08-28T07:08:39.191Z,24.78
2018-08-28T07:13:22.734Z,24.68
2018-08-28T07:18:06.275Z,24.59
2018-08-28T07:22:50.035Z,24.64
2018-08-28T07:27:33.564Z,24.35
2018-08-28T07:32:17.166Z,23.88
2018-08-28T07:37:00.626Z,23.60
2018-08-28T07:41:44.087Z,24.03
2018-08-28T07:46:28.700Z,23.67
2018-08-28T07:51:12.033Z,23.76
2018-08-28T07:55:56.480Z,24.18
2018-08-28T08:00:39.954Z,23.09
2018-08-28T08:05:26.082Z,22.83
2018-08-28T08:10:09.514Z,22.59
2018-08-28T08:14:53.817Z,22.50
2018-08-28T08:19:37.289Z,22.58
2018-08-28T08:24:20.736Z,23.14
2018-08-28T08:29:04.353Z,23.63
2018-08-28T08:33:47.851Z,23.61
2018-08-28T08:38:31.367Z,22.72
2018-08-28T08:43:14.727Z,23.18
2018-08-28T08:47:58.281Z,23.41
2018-08-28T08:52:41.662Z,23.69
2018-08-28T08:57:25.424Z,23.73
2018-08-28T09:02:09.063Z,23.92
2018-08-28T09:06:53.824Z,23.93
2018-08-28T09:11:37.216Z,24.02
2018-08-28T09:16:20.830Z,23.82
2018-08-28T09:21:04.355Z,23.54
2018-08-28T09:25:48.940Z,23.70
2018-08-28T09:30:32.310Z,23.87
2018-08-28T09:35:19.557Z,24.09
2018-08-28T09:40:03.211Z,24.18
2018-08-28T09:44:46.569Z,24.19
2018-08-28T09:49:29.986Z,24.37
2018-08-28T09:54:13.332Z,24.55
2018-08-28T09:58:56.743Z,24.60
2018-08-28T10:03:40.169Z,24.71
2018-08-28T10:08:24.589Z,24.81
2018-08-28T10:13:08.057Z,24.90
2018-08-28T10:17:51.673Z,25.05
2018-08-28T10:22:35.071Z,25.21
2018-08-28T10:27:18.693Z,25.37
2018-08-28T10:32:02.049Z,25.60
2018-08-28T10:36:45.727Z,25.72
2018-08-28T10:41:29.150Z,25.87
2018-08-28T10:46:12.862Z,25.84
2018-08-28T10:50:55.978Z,26.25
2018-08-28T10:55:39.509Z,26.30
2018-08-28T11:00:22.923Z,26.90
2018-08-28T11:05:06.460Z,26.69
2018-08-28T11:09:50.114Z,26.93
2018-08-28T11:14:33.661Z,26.82
2018-08-28T11:19:17.109Z,26.56
2018-08-28T11:24:00.649Z,26.58
2018-08-28T11:28:44.110Z,28.23
2018-08-28T11:33:27.614Z,28.32
2018-08-28T11:38:11.137Z,27.83
2018-08-28T11:42:54.673Z,27.68
2018-08-28T11:47:40.126Z,29.04
2018-08-28T11:52:23.588Z,28.32
2018-08-28T11:57:07.562Z,28.13
2018-08-28T12:01:50.957Z,27.59
2018-08-28T12:06:34.348Z,29.62
2018-08-28T12:11:17.695Z,29.00
2018-08-28T12:16:02.046Z,29.48
2018-08-28T12:20:45.430Z,28.80
2018-08-28T12:25:30.737Z,28.36
2018-08-28T12:30:15.393Z,29.22
2018-08-28T12:34:58.874Z,28.51
2018-08-28T12:39:42.258Z,29.15
2018-08-28T12:44:29.132Z,28.92
2018-08-28T12:49:12.594Z,28.78
2018-08-28T12:53:55.970Z,29.06
2018-08-28T12:58:40.508Z,29.02
2018-08-28T13:03:24.607Z,28.60
2018-08-28T13:08:08.155Z,28.84
2018-08-28T13:12:51.662Z,29.00
2018-08-28T13:17:38.065Z,30.15
2018-08-28T13:22:21.454Z,29.16
2018-08-28T13:27:05.598Z,28.88
2018-08-28T13:31:48.947Z,28.74
2018-08-28T13:36:32.369Z,29.07
2018-08-28T13:41:15.801Z,28.34
2018-08-28T13:46:00.458Z,28.82
2018-08-28T13:50:44.257Z,28.52
2018-08-28T13:55:33.520Z,28.96
2018-08-28T14:00:16.906Z,28.46
2018-08-28T14:05:00.412Z,28.41
2018-08-28T14:09:44.180Z,28.53
2018-08-28T14:14:27.769Z,28.21
2018-08-28T14:19:10.941Z,27.82
2018-08-28T14:23:54.546Z,27.91
2018-08-28T14:28:38.096Z,28.56
2018-08-28T14:33:21.408Z,27.74
2018-08-28T14:38:05.019Z,28.51
